sensor_id;sensor_type;location;lat;lon;timestamp;P1;durP1;ratioP1;P2;durP2;ratioP2
67751;SDS011;54551;51.068;5.826;2023-04-01T00:01:40;2.53;;;1.17;;
67751;SDS011;54551;51.068;5.826;2023-04-01T00:04:06;3.83;;;1.47;;
67751;SDS011;54551;51.068;5.826;2023-04-01T00:06:32;2.97;;;1.30;;
67751;SDS011;54551;51.068;5.826;2023-04-01T00:08:58;3.63;;;1.50;;
67751;SDS011;54551;51.068;5.826;2023-04-01T00:11:24;5.57;;;1.40;;
67751;SDS011;54551;51.068;5.826;2023-04-01T00:13:52;3.83;;;1.30;;
67751;SDS011;54551;51.068;5.826;2023-04-01T00:16:18;1.73;;;1.07;;
67751;SDS011;54551;51.068;5.826;2023-04-01T00:18:44;4.40;;;1.40;;
67751;SDS011;54551;51.068;5.826;2023-04-01T00:21:12;7.00;;;1.70;;
67751;SDS011;54551;51.068;5.826;2023-04-01T00:23:38;3.53;;;1.30;;
67751;SDS011;54551;51.068;5.826;2023-04-01T00:26:04;5.07;;;1.77;;
67751;SDS011;54551;51.068;5.826;2023-04-01T00:28:30;2.80;;;1.20;;
67751;SDS011;54551;51.068;5.826;2023-04-01T00:30:58;5.23;;;1.20;;
67751;SDS011;54551;51.068;5.826;2023-04-01T00:33:30;4.23;;;1.20;;
67751;SDS011;54551;51.068;5.826;2023-04-01T00:35:56;2.47;;;1.10;;
67751;SDS011;54551;51.068;5.826;2023-04-01T00:38:30;3.60;;;1.30;;
67751;SDS011;54551;51.068;5.826;2023-04-01T00:40:56;4.77;;;1.33;;
67751;SDS011;54551;51.068;5.826;2023-04-01T00:43:23;5.23;;;1.13;;
67751;SDS011;54551;51.068;5.826;2023-04-01T00:45:49;4.97;;;1.53;;
67751;SDS011;54551;51.068;5.826;2023-04-01T00:48:26;4.00;;;1.10;;
67751;SDS011;54551;51.068;5.826;2023-04-01T00:51:03;3.57;;;1.00;;
67751;SDS011;54551;51.068;5.826;2023-04-01T00:53:32;4.93;;;1.50;;
67751;SDS011;54551;51.068;5.826;2023-04-01T00:56:18;1.30;;;1.00;;
67751;SDS011;54551;51.068;5.826;2023-04-01T00:58:49;3.87;;;1.27;;
67751;SDS011;54551;51.068;5.826;2023-04-01T01:01:22;3.23;;;1.23;;
67751;SDS011;54551;51.068;5.826;2023-04-01T01:03:49;3.57;;;1.20;;
67751;SDS011;54551;51.068;5.826;2023-04-01T01:09:06;2.10;;;1.17;;
67751;SDS011;54551;51.068;5.826;2023-04-01T01:11:45;2.57;;;1.30;;
67751;SDS011;54551;51.068;5.826;2023-04-01T01:14:36;3.37;;;1.20;;
67751;SDS011;54551;51.068;5.826;2023-04-01T01:19:46;3.60;;;1.40;;
67751;SDS011;54551;51.068;5.826;2023-04-01T01:27:39;3.17;;;1.33;;
67751;SDS011;54551;51.068;5.826;2023-04-01T01:30:25;3.00;;;1.20;;
67751;SDS011;54551;51.068;5.826;2023-04-01T01:35:50;3.80;;;1.20;;
67751;SDS011;54551;51.068;5.826;2023-04-01T01:38:21;3.27;;;1.30;;
67751;SDS011;54551;51.068;5.826;2023-04-01T01:40:59;4.80;;;1.27;;
67751;SDS011;54551;51.068;5.826;2023-04-01T01:43:29;3.60;;;1.37;;
67751;SDS011;54551;51.068;5.826;2023-04-01T01:46:00;3.83;;;1.20;;
67751;SDS011;54551;51.068;5.826;2023-04-01T01:48:32;2.97;;;1.20;;
67751;SDS011;54551;51.068;5.826;2023-04-01T01:50:59;3.70;;;1.30;;
67751;SDS011;54551;51.068;5.826;2023-04-01T01:53:25;5.53;;;1.37;;
67751;SDS011;54551;51.068;5.826;2023-04-01T01:55:51;3.73;;;1.37;;
67751;SDS011;54551;51.068;5.826;2023-04-01T02:01:16;4.87;;;1.10;;
67751;SDS011;54551;51.068;5.826;2023-04-01T02:03:45;4.43;;;1.27;;
67751;SDS011;54551;51.068;5.826;2023-04-01T02:06:14;2.33;;;1.00;;
67751;SDS011;54551;51.068;5.826;2023-04-01T02:08:54;2.70;;;1.00;;
67751;SDS011;54551;51.068;5.826;2023-04-01T02:11:34;5.13;;;1.20;;
67751;SDS011;54551;51.068;5.826;2023-04-01T02:14:10;6.87;;;1.50;;
67751;SDS011;54551;51.068;5.826;2023-04-01T02:16:44;2.57;;;1.13;;
67751;SDS011;54551;51.068;5.826;2023-04-01T02:19:18;4.40;;;1.27;;
67751;SDS011;54551;51.068;5.826;2023-04-01T02:21:49;3.30;;;1.00;;
67751;SDS011;54551;51.068;5.826;2023-04-01T02:24:18;3.30;;;1.10;;
67751;SDS011;54551;51.068;5.826;2023-04-01T02:26:50;3.23;;;1.20;;
67751;SDS011;54551;51.068;5.826;2023-04-01T02:29:18;2.47;;;1.03;;
67751;SDS011;54551;51.068;5.826;2023-04-01T02:31:47;3.23;;;1.13;;
67751;SDS011;54551;51.068;5.826;2023-04-01T02:34:14;2.97;;;1.10;;
67751;SDS011;54551;51.068;5.826;2023-04-01T02:36:41;2.23;;;1.10;;
67751;SDS011;54551;51.068;5.826;2023-04-01T02:39:08;2.57;;;1.60;;
67751;SDS011;54551;51.068;5.826;2023-04-01T02:41:40;2.87;;;0.93;;
67751;SDS011;54551;51.068;5.826;2023-04-01T02:44:08;4.37;;;1.13;;
67751;SDS011;54551;51.068;5.826;2023-04-01T02:46:36;1.37;;;1.13;;
67751;SDS011;54551;51.068;5.826;2023-04-01T02:49:03;1.73;;;1.00;;
67751;SDS011;54551;51.068;5.826;2023-04-01T02:51:30;3.07;;;1.20;;
67751;SDS011;54551;51.068;5.826;2023-04-01T02:53:56;3.80;;;1.47;;
67751;SDS011;54551;51.068;5.826;2023-04-01T02:56:22;2.33;;;1.00;;
67751;SDS011;54551;51.068;5.826;2023-04-01T02:58:48;2.83;;;1.20;;
67751;SDS011;54551;51.068;5.826;2023-04-01T03:01:14;2.10;;;1.37;;
67751;SDS011;54551;51.068;5.826;2023-04-01T03:03:40;3.70;;;1.23;;
67751;SDS011;54551;51.068;5.826;2023-04-01T03:06:07;3.90;;;1.50;;
67751;SDS011;54551;51.068;5.826;2023-04-01T03:08:34;1.10;;;1.00;;
67751;SDS011;54551;51.068;5.826;2023-04-01T03:11:00;1.60;;;1.03;;
67751;SDS011;54551;51.068;5.826;2023-04-01T03:13:27;1.20;;;1.10;;
67751;SDS011;54551;51.068;5.826;2023-04-01T03:15:53;2.17;;;1.57;;
67751;SDS011;54551;51.068;5.826;2023-04-01T03:18:19;1.13;;;1.00;;
67751;SDS011;54551;51.068;5.826;2023-04-01T03:20:46;1.77;;;1.30;;
67751;SDS011;54551;51.068;5.826;2023-04-01T03:23:12;2.13;;;1.30;;
67751;SDS011;54551;51.068;5.826;2023-04-01T03:25:38;1.67;;;1.03;;
67751;SDS011;54551;51.068;5.826;2023-04-01T03:28:05;2.00;;;1.50;;
67751;SDS011;54551;51.068;5.826;2023-04-01T03:30:31;3.33;;;1.43;;
67751;SDS011;54551;51.068;5.826;2023-04-01T03:32:57;3.07;;;1.50;;
67751;SDS011;54551;51.068;5.826;2023-04-01T03:35:25;1.60;;;1.50;;
67751;SDS011;54551;51.068;5.826;2023-04-01T03:37:52;2.47;;;1.60;;
67751;SDS011;54551;51.068;5.826;2023-04-01T03:40:19;2.33;;;1.70;;
67751;SDS011;54551;51.068;5.826;2023-04-01T03:42:46;2.10;;;1.77;;
67751;SDS011;54551;51.068;5.826;2023-04-01T03:45:14;3.00;;;1.83;;
67751;SDS011;54551;51.068;5.826;2023-04-01T03:47:40;1.50;;;1.40;;
67751;SDS011;54551;51.068;5.826;2023-04-01T03:50:07;1.83;;;1.40;;
67751;SDS011;54551;51.068;5.826;2023-04-01T03:52:34;1.60;;;1.40;;
67751;SDS011;54551;51.068;5.826;2023-04-01T03:55:00;1.30;;;1.20;;
67751;SDS011;54551;51.068;5.826;2023-04-01T03:57:27;2.07;;;1.33;;
67751;SDS011;54551;51.068;5.826;2023-04-01T03:59:56;2.87;;;1.60;;
67751;SDS011;54551;51.068;5.826;2023-04-01T04:02:22;2.07;;;1.33;;
67751;SDS011;54551;51.068;5.826;2023-04-01T04:04:48;2.13;;;1.27;;
67751;SDS011;54551;51.068;5.826;2023-04-01T04:07:14;2.00;;;1.50;;
67751;SDS011;54551;51.068;5.826;2023-04-01T04:10:02;3.67;;;1.53;;
67751;SDS011;54551;51.068;5.826;2023-04-01T04:12:28;2.03;;;1.63;;
67751;SDS011;54551;51.068;5.826;2023-04-01T04:14:54;2.17;;;1.70;;
67751;SDS011;54551;51.068;5.826;2023-04-01T04:17:20;1.77;;;1.50;;
67751;SDS011;54551;51.068;5.826;2023-04-01T04:19:46;1.70;;;1.60;;
67751;SDS011;54551;51.068;5.826;2023-04-01T04:22:12;2.37;;;1.90;;
67751;SDS011;54551;51.068;5.826;2023-04-01T04:24:38;1.80;;;1.67;;
67751;SDS011;54551;51.068;5.826;2023-04-01T04:27:09;1.70;;;1.60;;
67751;SDS011;54551;51.068;5.826;2023-04-01T04:29:42;2.10;;;1.70;;
67751;SDS011;54551;51.068;5.826;2023-04-01T04:32:08;3.40;;;1.70;;
67751;SDS011;54551;51.068;5.826;2023-04-01T04:34:34;3.07;;;1.60;;
67751;SDS011;54551;51.068;5.826;2023-04-01T04:37:00;3.57;;;2.20;;
67751;SDS011;54551;51.068;5.826;2023-04-01T04:39:30;3.27;;;2.00;;
67751;SDS011;54551;51.068;5.826;2023-04-01T04:41:56;2.40;;;2.00;;
67751;SDS011;54551;51.068;5.826;2023-04-01T04:44:21;2.93;;;1.90;;
67751;SDS011;54551;51.068;5.826;2023-04-01T04:46:47;3.30;;;2.03;;
67751;SDS011;54551;51.068;5.826;2023-04-01T04:49:15;3.43;;;2.20;;
67751;SDS011;54551;51.068;5.826;2023-04-01T04:51:41;2.10;;;2.00;;
67751;SDS011;54551;51.068;5.826;2023-04-01T04:54:07;2.97;;;2.00;;
67751;SDS011;54551;51.068;5.826;2023-04-01T04:57:05;2.87;;;1.80;;
67751;SDS011;54551;51.068;5.826;2023-04-01T04:59:37;2.23;;;1.77;;
67751;SDS011;54551;51.068;5.826;2023-04-01T05:02:13;1.93;;;1.70;;
67751;SDS011;54551;51.068;5.826;2023-04-01T05:04:39;2.03;;;1.50;;
67751;SDS011;54551;51.068;5.826;2023-04-01T05:07:08;2.50;;;1.70;;
67751;SDS011;54551;51.068;5.826;2023-04-01T05:09:34;1.43;;;1.33;;
67751;SDS011;54551;51.068;5.826;2023-04-01T05:12:00;1.60;;;1.30;;
67751;SDS011;54551;51.068;5.826;2023-04-01T05:14:33;1.83;;;1.30;;
67751;SDS011;54551;51.068;5.826;2023-04-01T05:17:10;1.87;;;1.30;;
67751;SDS011;54551;51.068;5.826;2023-04-01T05:19:37;1.80;;;1.67;;
67751;SDS011;54551;51.068;5.826;2023-04-01T05:22:03;1.40;;;1.30;;
67751;SDS011;54551;51.068;5.826;2023-04-01T05:24:30;2.90;;;1.70;;
67751;SDS011;54551;51.068;5.826;2023-04-01T05:26:57;1.60;;;1.50;;
67751;SDS011;54551;51.068;5.826;2023-04-01T05:29:25;1.57;;;1.47;;
67751;SDS011;54551;51.068;5.826;2023-04-01T05:31:57;1.80;;;1.70;;
67751;SDS011;54551;51.068;5.826;2023-04-01T05:34:23;1.67;;;1.37;;
67751;SDS011;54551;51.068;5.826;2023-04-01T05:36:49;1.87;;;1.30;;
67751;SDS011;54551;51.068;5.826;2023-04-01T05:39:16;1.60;;;1.50;;
67751;SDS011;54551;51.068;5.826;2023-04-01T05:41:43;1.40;;;1.30;;
67751;SDS011;54551;51.068;5.826;2023-04-01T05:44:10;1.57;;;1.30;;
67751;SDS011;54551;51.068;5.826;2023-04-01T05:46:40;1.70;;;1.60;;
67751;SDS011;54551;51.068;5.826;2023-04-01T05:49:16;1.90;;;1.40;;
67751;SDS011;54551;51.068;5.826;2023-04-01T05:51:42;2.70;;;1.47;;
67751;SDS011;54551;51.068;5.826;2023-04-01T05:54:08;2.33;;;2.10;;
67751;SDS011;54551;51.068;5.826;2023-04-01T05:56:34;2.47;;;1.83;;
67751;SDS011;54551;51.068;5.826;2023-04-01T05:59:01;2.57;;;2.00;;
67751;SDS011;54551;51.068;5.826;2023-04-01T06:01:27;2.40;;;2.20;;
67751;SDS011;54551;51.068;5.826;2023-04-01T06:03:53;1.90;;;1.80;;
67751;SDS011;54551;51.068;5.826;2023-04-01T06:06:23;3.63;;;2.13;;
67751;SDS011;54551;51.068;5.826;2023-04-01T06:09:14;2.10;;;1.90;;
67751;SDS011;54551;51.068;5.826;2023-04-01T06:14:59;3.13;;;1.80;;
67751;SDS011;54551;51.068;5.826;2023-04-01T06:23:01;2.53;;;2.07;;
67751;SDS011;54551;51.068;5.826;2023-04-01T06:39:52;3.37;;;2.10;;
67751;SDS011;54551;51.068;5.826;2023-04-01T06:48:45;3.37;;;3.07;;
67751;SDS011;54551;51.068;5.826;2023-04-01T06:54:52;3.63;;;3.33;;
67751;SDS011;54551;51.068;5.826;2023-04-01T06:57:43;3.37;;;3.17;;
67751;SDS011;54551;51.068;5.826;2023-04-01T07:00:27;3.83;;;3.30;;
67751;SDS011;54551;51.068;5.826;2023-04-01T07:05:46;3.90;;;3.50;;
67751;SDS011;54551;51.068;5.826;2023-04-01T07:08:16;4.13;;;3.83;;
67751;SDS011;54551;51.068;5.826;2023-04-01T07:13:48;3.17;;;2.83;;
67751;SDS011;54551;51.068;5.826;2023-04-01T07:16:30;3.37;;;3.10;;
67751;SDS011;54551;51.068;5.826;2023-04-01T07:19:02;3.77;;;3.30;;
67751;SDS011;54551;51.068;5.826;2023-04-01T07:22:03;2.80;;;2.60;;
67751;SDS011;54551;51.068;5.826;2023-04-01T07:25:07;3.20;;;2.97;;
67751;SDS011;54551;51.068;5.826;2023-04-01T07:27:44;3.30;;;3.00;;
67751;SDS011;54551;51.068;5.826;2023-04-01T07:30:18;3.33;;;3.13;;
67751;SDS011;54551;51.068;5.826;2023-04-01T07:48:57;2.03;;;1.93;;
67751;SDS011;54551;51.068;5.826;2023-04-01T07:51:49;2.30;;;2.10;;
67751;SDS011;54551;51.068;5.826;2023-04-01T08:00:02;2.33;;;1.73;;
67751;SDS011;54551;51.068;5.826;2023-04-01T08:05:57;2.13;;;1.67;;
67751;SDS011;54551;51.068;5.826;2023-04-01T08:09:32;2.13;;;2.00;;
67751;SDS011;54551;51.068;5.826;2023-04-01T08:11:59;1.70;;;1.60;;
67751;SDS011;54551;51.068;5.826;2023-04-01T08:15:15;1.53;;;1.43;;
67751;SDS011;54551;51.068;5.826;2023-04-01T08:31:58;1.43;;;1.40;;
67751;SDS011;54551;51.068;5.826;2023-04-01T08:34:37;2.20;;;1.70;;
67751;SDS011;54551;51.068;5.826;2023-04-01T08:37:14;1.87;;;1.60;;
67751;SDS011;54551;51.068;5.826;2023-04-01T08:39:56;1.83;;;1.37;;
67751;SDS011;54551;51.068;5.826;2023-04-01T08:56:21;1.40;;;1.30;;
67751;SDS011;54551;51.068;5.826;2023-04-01T08:59:09;1.60;;;1.50;;
67751;SDS011;54551;51.068;5.826;2023-04-01T09:14:06;2.60;;;2.40;;
67751;SDS011;54551;51.068;5.826;2023-04-01T09:19:48;2.27;;;2.17;;
67751;SDS011;54551;51.068;5.826;2023-04-01T09:34:12;2.97;;;2.77;;
67751;SDS011;54551;51.068;5.826;2023-04-01T09:45:32;3.90;;;2.67;;
67751;SDS011;54551;51.068;5.826;2023-04-01T09:51:12;3.00;;;2.67;;
67751;SDS011;54551;51.068;5.826;2023-04-01T09:54:01;3.13;;;2.93;;
67751;SDS011;54551;51.068;5.826;2023-04-01T10:14:06;4.00;;;3.70;;
67751;SDS011;54551;51.068;5.826;2023-04-01T10:43:02;3.23;;;3.03;;
67751;SDS011;54551;51.068;5.826;2023-04-01T10:48:56;3.10;;;2.90;;
67751;SDS011;54551;51.068;5.826;2023-04-01T10:54:45;3.20;;;3.00;;
67751;SDS011;54551;51.068;5.826;2023-04-01T11:30:44;3.10;;;2.90;;
67751;SDS011;54551;51.068;5.826;2023-04-01T11:33:36;3.03;;;2.83;;
67751;SDS011;54551;51.068;5.826;2023-04-01T11:37:23;3.87;;;3.67;;
67751;SDS011;54551;51.068;5.826;2023-04-01T11:42:09;3.27;;;3.07;;
67751;SDS011;54551;51.068;5.826;2023-04-01T11:45:07;3.67;;;3.37;;
67751;SDS011;54551;51.068;5.826;2023-04-01T11:48:03;2.83;;;2.63;;
67751;SDS011;54551;51.068;5.826;2023-04-01T11:50:43;3.20;;;3.00;;
67751;SDS011;54551;51.068;5.826;2023-04-01T11:58:36;2.73;;;2.53;;
67751;SDS011;54551;51.068;5.826;2023-04-01T12:33:36;2.90;;;2.70;;
67751;SDS011;54551;51.068;5.826;2023-04-01T12:50:28;3.23;;;2.17;;
67751;SDS011;54551;51.068;5.826;2023-04-01T12:56:17;2.50;;;2.30;;
67751;SDS011;54551;51.068;5.826;2023-04-01T12:59:01;2.67;;;2.57;;
67751;SDS011;54551;51.068;5.826;2023-04-01T13:01:46;2.50;;;2.30;;
67751;SDS011;54551;51.068;5.826;2023-04-01T13:17:36;3.57;;;3.37;;
67751;SDS011;54551;51.068;5.826;2023-04-01T13:23:07;4.10;;;3.80;;
67751;SDS011;54551;51.068;5.826;2023-04-01T13:28:29;4.17;;;3.87;;
67751;SDS011;54551;51.068;5.826;2023-04-01T13:33:50;5.17;;;4.60;;
67751;SDS011;54551;51.068;5.826;2023-04-01T13:37:11;4.53;;;4.20;;
67751;SDS011;54551;51.068;5.826;2023-04-01T13:44:55;5.17;;;4.70;;
67751;SDS011;54551;51.068;5.826;2023-04-01T13:59:22;5.40;;;4.90;;
67751;SDS011;54551;51.068;5.826;2023-04-01T14:02:06;4.70;;;4.30;;
67751;SDS011;54551;51.068;5.826;2023-04-01T14:14:03;4.53;;;4.23;;
67751;SDS011;54551;51.068;5.826;2023-04-01T14:44:23;4.90;;;4.50;;
67751;SDS011;54551;51.068;5.826;2023-04-01T14:50:16;4.23;;;3.93;;
67751;SDS011;54551;51.068;5.826;2023-04-01T14:55:34;4.17;;;3.77;;
67751;SDS011;54551;51.068;5.826;2023-04-01T15:06:35;3.70;;;3.40;;
67751;SDS011;54551;51.068;5.826;2023-04-01T15:14:29;3.70;;;3.43;;
67751;SDS011;54551;51.068;5.826;2023-04-01T15:27:53;4.00;;;3.70;;
67751;SDS011;54551;51.068;5.826;2023-04-01T15:30:32;4.13;;;3.73;;
67751;SDS011;54551;51.068;5.826;2023-04-01T15:43:51;4.00;;;3.70;;
67751;SDS011;54551;51.068;5.826;2023-04-01T16:13:46;3.40;;;3.10;;
67751;SDS011;54551;51.068;5.826;2023-04-01T16:27:24;4.70;;;4.33;;
67751;SDS011;54551;51.068;5.826;2023-04-01T16:30:03;4.93;;;4.53;;
67751;SDS011;54551;51.068;5.826;2023-04-01T16:32:59;5.13;;;4.73;;
67751;SDS011;54551;51.068;5.826;2023-04-01T16:35:40;5.40;;;5.00;;
67751;SDS011;54551;51.068;5.826;2023-04-01T16:38:36;6.23;;;5.80;;
67751;SDS011;54551;51.068;5.826;2023-04-01T16:43:39;5.90;;;5.43;;
67751;SDS011;54551;51.068;5.826;2023-04-01T16:48:54;7.27;;;6.67;;
67751;SDS011;54551;51.068;5.826;2023-04-01T16:52:11;7.10;;;6.50;;
67751;SDS011;54551;51.068;5.826;2023-04-01T16:57:16;6.67;;;6.17;;
67751;SDS011;54551;51.068;5.826;2023-04-01T17:02:45;6.73;;;6.23;;
67751;SDS011;54551;51.068;5.826;2023-04-01T17:05:20;5.67;;;5.27;;
67751;SDS011;54551;51.068;5.826;2023-04-01T17:11:17;6.03;;;5.53;;
67751;SDS011;54551;51.068;5.826;2023-04-01T17:14:00;6.73;;;5.87;;
67751;SDS011;54551;51.068;5.826;2023-04-01T17:24:58;5.73;;;5.17;;
67751;SDS011;54551;51.068;5.826;2023-04-01T17:33:05;5.80;;;5.27;;
67751;SDS011;54551;51.068;5.826;2023-04-01T17:35:40;5.13;;;4.73;;
67751;SDS011;54551;51.068;5.826;2023-04-01T17:52:07;4.90;;;4.60;;
67751;SDS011;54551;51.068;5.826;2023-04-01T17:57:37;5.33;;;4.83;;
67751;SDS011;54551;51.068;5.826;2023-04-01T18:03:16;4.47;;;4.17;;
67751;SDS011;54551;51.068;5.826;2023-04-01T18:05:51;4.73;;;4.43;;
67751;SDS011;54551;51.068;5.826;2023-04-01T18:14:29;4.37;;;3.97;;
67751;SDS011;54551;51.068;5.826;2023-04-01T18:25:32;3.10;;;2.90;;
67751;SDS011;54551;51.068;5.826;2023-04-01T18:36:18;4.13;;;3.83;;
67751;SDS011;54551;51.068;5.826;2023-04-01T18:38:47;4.17;;;3.87;;
67751;SDS011;54551;51.068;5.826;2023-04-01T18:52:53;3.70;;;3.40;;
67751;SDS011;54551;51.068;5.826;2023-04-01T18:55:46;4.67;;;4.37;;
67751;SDS011;54551;51.068;5.826;2023-04-01T18:58:19;4.17;;;3.87;;
67751;SDS011;54551;51.068;5.826;2023-04-01T19:06:41;4.10;;;3.80;;
67751;SDS011;54551;51.068;5.826;2023-04-01T19:09:18;4.13;;;3.83;;
67751;SDS011;54551;51.068;5.826;2023-04-01T19:11:55;4.63;;;4.10;;
67751;SDS011;54551;51.068;5.826;2023-04-01T19:14:45;5.03;;;4.63;;
67751;SDS011;54551;51.068;5.826;2023-04-01T19:17:16;5.57;;;5.17;;
67751;SDS011;54551;51.068;5.826;2023-04-01T19:22:50;5.10;;;4.70;;
67751;SDS011;54551;51.068;5.826;2023-04-01T19:25:37;4.90;;;4.50;;
67751;SDS011;54551;51.068;5.826;2023-04-01T19:30:58;5.67;;;5.17;;
67751;SDS011;54551;51.068;5.826;2023-04-01T19:46:49;6.83;;;6.33;;
67751;SDS011;54551;51.068;5.826;2023-04-01T19:49:28;7.33;;;6.73;;
67751;SDS011;54551;51.068;5.826;2023-04-01T20:00:14;12.33;;;11.23;;
67751;SDS011;54551;51.068;5.826;2023-04-01T20:02:54;15.23;;;13.83;;
67751;SDS011;54551;51.068;5.826;2023-04-01T20:05:45;21.80;;;19.50;;
67751;SDS011;54551;51.068;5.826;2023-04-01T20:08:19;12.40;;;11.23;;
67751;SDS011;54551;51.068;5.826;2023-04-01T20:11:06;29.23;;;25.70;;
67751;SDS011;54551;51.068;5.826;2023-04-01T20:14:04;11.77;;;10.57;;
67751;SDS011;54551;51.068;5.826;2023-04-01T20:19:42;13.43;;;12.13;;
67751;SDS011;54551;51.068;5.826;2023-04-01T20:27:50;9.30;;;8.50;;
67751;SDS011;54551;51.068;5.826;2023-04-01T20:30:30;9.30;;;8.40;;
67751;SDS011;54551;51.068;5.826;2023-04-01T20:37:09;9.90;;;9.00;;
67751;SDS011;54551;51.068;5.826;2023-04-01T20:45:13;9.07;;;8.27;;
67751;SDS011;54551;51.068;5.826;2023-04-01T20:51:00;7.80;;;7.10;;
67751;SDS011;54551;51.068;5.826;2023-04-01T20:53:36;7.57;;;6.83;;
67751;SDS011;54551;51.068;5.826;2023-04-01T21:08:08;16.93;;;14.47;;
67751;SDS011;54551;51.068;5.826;2023-04-01T21:38:51;18.80;;;15.97;;
67751;SDS011;54551;51.068;5.826;2023-04-01T22:06:50;22.13;;;17.77;;
67751;SDS011;54551;51.068;5.826;2023-04-01T22:09:29;19.10;;;14.60;;
67751;SDS011;54551;51.068;5.826;2023-04-01T22:12:08;23.17;;;16.47;;
67751;SDS011;54551;51.068;5.826;2023-04-01T22:14:48;25.43;;;18.03;;
67751;SDS011;54551;51.068;5.826;2023-04-01T22:22:49;25.23;;;16.40;;
67751;SDS011;54551;51.068;5.826;2023-04-01T22:25:28;23.50;;;16.33;;
67751;SDS011;54551;51.068;5.826;2023-04-01T22:28:03;24.33;;;16.73;;
67751;SDS011;54551;51.068;5.826;2023-04-01T22:33:16;31.13;;;18.63;;
67751;SDS011;54551;51.068;5.826;2023-04-01T22:38:50;24.00;;;15.37;;
67751;SDS011;54551;51.068;5.826;2023-04-01T22:50:53;11.63;;;10.33;;
67751;SDS011;54551;51.068;5.826;2023-04-01T22:55:47;15.07;;;12.13;;
67751;SDS011;54551;51.068;5.826;2023-04-01T22:58:26;17.97;;;13.87;;
67751;SDS011;54551;51.068;5.826;2023-04-01T23:00:59;11.43;;;10.33;;
67751;SDS011;54551;51.068;5.826;2023-04-01T23:03:31;13.53;;;12.10;;
67751;SDS011;54551;51.068;5.826;2023-04-01T23:06:03;15.33;;;12.40;;
67751;SDS011;54551;51.068;5.826;2023-04-01T23:11:09;9.50;;;8.60;;
67751;SDS011;54551;51.068;5.826;2023-04-01T23:13:48;8.47;;;7.67;;
67751;SDS011;54551;51.068;5.826;2023-04-01T23:16:28;11.87;;;10.10;;
67751;SDS011;54551;51.068;5.826;2023-04-01T23:22:04;16.83;;;12.63;;
67751;SDS011;54551;51.068;5.826;2023-04-01T23:24:40;10.90;;;9.83;;
67751;SDS011;54551;51.068;5.826;2023-04-01T23:27:17;12.10;;;9.90;;
67751;SDS011;54551;51.068;5.826;2023-04-01T23:30:45;19.80;;;13.70;;
67751;SDS011;54551;51.068;5.826;2023-04-01T23:35:51;13.33;;;10.33;;
67751;SDS011;54551;51.068;5.826;2023-04-01T23:38:34;8.83;;;7.93;;
67751;SDS011;54551;51.068;5.826;2023-04-01T23:41:02;10.90;;;9.73;;
67751;SDS011;54551;51.068;5.826;2023-04-01T23:43:30;17.13;;;14.23;;
67751;SDS011;54551;51.068;5.826;2023-04-01T23:46:00;11.97;;;10.73;;
67751;SDS011;54551;51.068;5.826;2023-04-01T23:48:38;21.97;;;16.50;;
67751;SDS011;54551;51.068;5.826;2023-04-01T23:51:29;11.77;;;10.67;;
67751;SDS011;54551;51.068;5.826;2023-04-01T23:54:03;20.40;;;16.10;;
67751;SDS011;54551;51.068;5.826;2023-04-01T23:56:41;16.23;;;14.47;;
67751;SDS011;54551;51.068;5.826;2023-04-01T23:59:18;20.17;;;16.13;;
